createdAt,value
2019-05-26T00:00:37.431Z,7.13
2019-05-26T00:01:37.427Z,7.13
2019-05-26T00:02:37.409Z,7.13
2019-05-26T00:03:37.416Z,7.07
2019-05-26T00:04:37.387Z,7.04
2019-05-26T00:05:37.377Z,7.09
2019-05-26T00:06:37.372Z,7.12
2019-05-26T00:07:37.355Z,7.19
2019-05-26T00:08:37.354Z,7.13
2019-05-26T00:09:37.333Z,7.27
2019-05-26T00:10:37.318Z,7.16
2019-05-26T00:11:37.315Z,7.19
2019-05-26T00:12:37.311Z,7.16
2019-05-26T00:13:37.304Z,7.12
2019-05-26T00:14:37.274Z,7.13
2019-05-26T00:15:37.263Z,7.02
2019-05-26T00:16:37.268Z,7.02
2019-05-26T00:17:37.240Z,6.97
2019-05-26T00:18:37.241Z,7.05
2019-05-26T00:19:37.334Z,6.95
2019-05-26T00:20:37.206Z,6.97
2019-05-26T00:21:37.194Z,6.94
2019-05-26T00:22:37.199Z,6.97
2019-05-26T00:23:37.214Z,6.90
2019-05-26T00:24:37.164Z,6.94
2019-05-26T00:25:37.186Z,6.91
2019-05-26T00:26:37.141Z,6.90
2019-05-26T00:27:37.135Z,6.84
2019-05-26T00:28:37.121Z,6.87
2019-05-26T00:29:37.104Z,6.77
2019-05-26T00:30:37.094Z,6.83
2019-05-26T00:31:37.093Z,6.83
2019-05-26T00:32:37.083Z,6.91
2019-05-26T00:33:37.060Z,6.97
2019-05-26T00:34:37.057Z,6.80
2019-05-26T00:35:37.053Z,6.81
2019-05-26T00:36:37.040Z,6.86
2019-05-26T00:37:48.373Z,6.86
2019-05-26T00:38:38.003Z,6.87
2019-05-26T00:39:36.995Z,6.87
2019-05-26T00:40:36.995Z,6.94
2019-05-26T00:41:36.989Z,6.94
2019-05-26T00:42:36.956Z,6.91
2019-05-26T00:43:36.957Z,6.94
2019-05-26T00:44:36.934Z,6.97
2019-05-26T00:45:36.949Z,6.95
2019-05-26T00:46:36.948Z,6.99
2019-05-26T00:47:36.906Z,6.94
2019-05-26T00:48:36.889Z,6.89
2019-05-26T00:49:36.879Z,7.02
2019-05-26T00:50:36.866Z,7.04
2019-05-26T00:51:36.865Z,7.07
2019-05-26T00:52:36.867Z,6.98
2019-05-26T00:53:36.858Z,7.13
2019-05-26T00:54:36.822Z,7.02
2019-05-26T00:55:36.818Z,7.01
2019-05-26T00:56:36.798Z,7.04
2019-05-26T00:57:36.789Z,7.08
2019-05-26T00:58:36.791Z,7.05
2019-05-26T00:59:36.780Z,7.15
2019-05-26T01:00:36.753Z,7.15
2019-05-26T01:01:36.742Z,7.22
2019-05-26T01:02:36.745Z,7.19
2019-05-26T01:03:36.738Z,7.19
2019-05-26T01:04:36.738Z,7.13
2019-05-26T01:05:36.711Z,7.07
2019-05-26T01:06:36.689Z,7.02
2019-05-26T01:07:36.678Z,6.94
2019-05-26T01:08:36.663Z,6.91
2019-05-26T01:09:36.666Z,6.94
2019-05-26T01:10:36.655Z,6.91
2019-05-26T01:11:36.628Z,6.91
2019-05-26T01:12:36.692Z,6.95
2019-05-26T01:13:36.605Z,6.95
2019-05-26T01:14:36.611Z,6.79
2019-05-26T01:15:36.594Z,6.83
2019-05-26T01:16:36.580Z,6.84
2019-05-26T01:17:36.562Z,6.90
2019-05-26T01:18:36.558Z,6.89
2019-05-26T01:19:36.574Z,6.97
2019-05-26T01:20:36.538Z,6.84
2019-05-26T01:21:36.515Z,6.76
2019-05-26T01:22:36.544Z,6.77
2019-05-26T01:23:36.495Z,6.77
2019-05-26T01:24:36.481Z,6.76
2019-05-26T01:25:36.486Z,6.80
2019-05-26T01:26:36.475Z,6.87
2019-05-26T01:27:36.448Z,6.95
2019-05-26T01:28:36.448Z,6.90
2019-05-26T01:29:36.427Z,6.90
2019-05-26T01:30:36.522Z,6.95
2019-05-26T01:31:36.403Z,6.97
2019-05-26T01:32:36.399Z,6.95
2019-05-26T01:33:36.386Z,6.90
2019-05-26T01:34:36.384Z,6.95
2019-05-26T01:35:36.372Z,6.91
2019-05-26T01:36:36.364Z,6.94
2019-05-26T01:37:36.337Z,6.91
2019-05-26T01:38:36.324Z,6.97
2019-05-26T01:39:36.313Z,7.05
2019-05-26T01:40:36.315Z,6.94
2019-05-26T01:41:36.307Z,6.91
2019-05-26T01:42:36.286Z,6.91
2019-05-26T01:43:36.277Z,6.94
2019-05-26T01:44:36.256Z,6.98
2019-05-26T01:45:36.244Z,6.97
2019-05-26T01:46:36.270Z,6.89
2019-05-26T01:47:36.225Z,7.04
2019-05-26T01:48:36.211Z,7.04
2019-05-26T01:49:36.213Z,6.99
2019-05-26T01:50:36.192Z,7.02
2019-05-26T01:51:36.179Z,6.98
2019-05-26T01:52:36.213Z,7.01
2019-05-26T01:53:36.156Z,7.02
2019-05-26T01:54:36.146Z,6.99
2019-05-26T01:55:36.134Z,7.02
2019-05-26T01:56:36.122Z,7.04
2019-05-26T01:57:36.117Z,6.99
2019-05-26T01:58:36.138Z,7.02
2019-05-26T01:59:36.092Z,6.98
2019-05-26T02:00:36.089Z,6.98
2019-05-26T02:01:36.066Z,6.98
2019-05-26T02:02:36.055Z,7.05
2019-05-26T02:03:36.043Z,7.05
2019-05-26T02:04:36.058Z,7.07
2019-05-26T02:05:36.023Z,7.09
2019-05-26T02:06:36.018Z,7.12
2019-05-26T02:07:36.001Z,7.08
2019-05-26T02:08:39.222Z,7.19
2019-05-26T02:09:35.994Z,7.26
2019-05-26T02:10:36.007Z,7.31
2019-05-26T02:11:35.954Z,7.26
2019-05-26T02:12:35.941Z,7.16
2019-05-26T02:13:35.932Z,7.19
2019-05-26T02:14:35.925Z,7.15
2019-05-26T02:15:35.925Z,7.34
2019-05-26T02:16:35.935Z,7.44
2019-05-26T02:17:35.941Z,7.45
2019-05-26T02:18:35.918Z,7.47
2019-05-26T02:19:35.878Z,7.41
2019-05-26T02:20:35.857Z,7.34
2019-05-26T02:21:35.877Z,7.35
2019-05-26T02:22:35.840Z,7.31
2019-05-26T02:23:35.831Z,7.29
2019-05-26T02:24:35.809Z,7.29
2019-05-26T02:25:35.804Z,7.23
2019-05-26T02:26:35.785Z,7.26
2019-05-26T02:27:35.795Z,7.31
2019-05-26T02:28:35.773Z,7.20
2019-05-26T02:29:35.751Z,7.19
2019-05-26T02:30:35.742Z,7.24
2019-05-26T02:31:35.759Z,7.24
2019-05-26T02:32:35.718Z,7.38
2019-05-26T02:33:35.706Z,7.41
2019-05-26T02:34:35.709Z,7.45
2019-05-26T02:35:35.683Z,7.45
2019-05-26T02:36:35.694Z,7.59
2019-05-26T02:37:35.675Z,7.59
2019-05-26T02:38:35.653Z,7.69
2019-05-26T02:39:35.640Z,7.69
2019-05-26T02:40:35.661Z,7.69
2019-05-26T02:41:35.615Z,7.66
2019-05-26T02:42:35.604Z,7.59
2019-05-26T02:43:35.605Z,7.56
2019-05-26T02:44:35.586Z,7.53
2019-05-26T02:45:35.573Z,7.52
2019-05-26T02:46:35.589Z,7.52
2019-05-26T02:47:35.550Z,7.53
2019-05-26T02:48:35.573Z,7.31
2019-05-26T02:49:35.536Z,7.40
2019-05-26T02:50:35.517Z,7.24
2019-05-26T02:51:35.524Z,7.34
2019-05-26T02:52:35.497Z,7.40
2019-05-26T02:53:35.486Z,7.32
2019-05-26T02:54:35.488Z,7.23
2019-05-26T02:55:35.462Z,7.23
2019-05-26T02:56:35.454Z,7.32
2019-05-26T02:57:35.439Z,7.22
2019-05-26T02:58:35.445Z,7.26
2019-05-26T02:59:35.429Z,7.19
2019-05-26T03:00:35.407Z,7.16
2019-05-26T03:01:35.394Z,7.12
2019-05-26T03:02:35.385Z,7.17
2019-05-26T03:03:35.409Z,7.17
2019-05-26T03:04:35.366Z,7.09
2019-05-26T03:05:35.365Z,7.08
2019-05-26T03:06:35.341Z,7.20
2019-05-26T03:07:35.340Z,7.13
2019-05-26T03:08:35.329Z,7.16
2019-05-26T03:09:35.304Z,7.16
2019-05-26T03:10:35.293Z,7.19
2019-05-26T03:11:35.294Z,7.26
2019-05-26T03:12:35.274Z,7.32
2019-05-26T03:13:35.272Z,7.35
2019-05-26T03:14:35.270Z,7.37
2019-05-26T03:15:35.234Z,7.42
2019-05-26T03:16:35.226Z,7.47
2019-05-26T03:17:35.219Z,7.38
2019-05-26T03:18:35.218Z,7.44
2019-05-26T03:19:35.198Z,7.47
2019-05-26T03:20:35.210Z,7.55
2019-05-26T03:21:35.170Z,7.63
2019-05-26T03:22:35.158Z,7.67
2019-05-26T03:23:35.157Z,7.56
2019-05-26T03:24:35.135Z,7.71
2019-05-26T03:25:35.127Z,7.77
2019-05-26T03:26:35.126Z,7.77
2019-05-26T03:27:35.100Z,7.79
2019-05-26T03:28:35.090Z,7.78
2019-05-26T03:29:35.094Z,7.84
2019-05-26T03:30:35.069Z,7.87
2019-05-26T03:31:35.072Z,7.90
2019-05-26T03:32:35.056Z,7.82
2019-05-26T03:33:35.037Z,7.90
2019-05-26T03:34:35.032Z,7.87
2019-05-26T03:35:35.046Z,7.87
2019-05-26T03:36:35.000Z,7.84
2019-05-26T03:37:35.013Z,7.92
2019-05-26T03:38:35.056Z,7.87
2019-05-26T03:39:44.531Z,7.99
2019-05-26T03:40:35.982Z,8.00
2019-05-26T03:41:34.955Z,7.94
2019-05-26T03:42:34.943Z,8.07
2019-05-26T03:43:34.920Z,8.03
2019-05-26T03:44:34.911Z,8.03
2019-05-26T03:45:34.897Z,8.07
2019-05-26T03:46:34.998Z,8.14
2019-05-26T03:47:34.885Z,8.21
2019-05-26T03:48:34.874Z,8.17
2019-05-26T03:49:34.859Z,8.18
2019-05-26T03:50:34.844Z,8.21
2019-05-26T03:51:34.889Z,8.28
2019-05-26T03:52:34.818Z,8.29
2019-05-26T03:53:34.818Z,8.29
2019-05-26T03:54:34.808Z,8.30
2019-05-26T03:55:34.793Z,8.37
2019-05-26T03:56:34.779Z,8.32
2019-05-26T03:57:34.826Z,8.42
2019-05-26T03:58:34.755Z,8.39
2019-05-26T03:59:34.753Z,8.45
2019-05-26T04:00:34.729Z,8.50
2019-05-26T04:01:34.738Z,8.53
2019-05-26T04:02:34.719Z,8.47
2019-05-26T04:03:34.710Z,8.62
2019-05-26T04:04:34.685Z,8.65
2019-05-26T04:05:34.683Z,8.62
2019-05-26T04:06:34.685Z,8.63
2019-05-26T04:07:34.672Z,8.71
2019-05-26T04:08:34.641Z,8.65
2019-05-26T04:09:34.633Z,8.76
2019-05-26T04:10:34.619Z,8.75
2019-05-26T04:11:34.616Z,8.86
2019-05-26T04:12:34.616Z,8.94
2019-05-26T04:13:34.589Z,8.90
2019-05-26T04:14:34.574Z,8.96
2019-05-26T04:15:34.562Z,8.97
2019-05-26T04:16:34.559Z,9.04
2019-05-26T04:17:34.584Z,9.05
2019-05-26T04:18:34.528Z,8.99
2019-05-26T04:19:34.528Z,9.09
2019-05-26T04:20:34.507Z,9.06
2019-05-26T04:21:34.495Z,9.10
2019-05-26T04:22:34.492Z,9.12
2019-05-26T04:23:34.481Z,9.18
2019-05-26T04:24:34.475Z,9.20
2019-05-26T04:25:34.453Z,9.23
2019-05-26T04:26:34.438Z,9.28
2019-05-26T04:27:34.426Z,9.39
2019-05-26T04:28:34.417Z,9.35
2019-05-26T04:29:34.450Z,9.46
2019-05-26T04:30:34.393Z,9.42
2019-05-26T04:31:34.386Z,9.46
2019-05-26T04:32:34.393Z,9.58
2019-05-26T04:33:34.369Z,9.73
2019-05-26T04:34:34.360Z,9.52
2019-05-26T04:35:34.375Z,9.67
2019-05-26T04:36:34.347Z,9.67
2019-05-26T04:37:34.317Z,9.76
2019-05-26T04:38:34.303Z,9.82
2019-05-26T04:39:34.302Z,9.86
2019-05-26T04:40:34.280Z,9.89
2019-05-26T04:41:34.285Z,9.96
2019-05-26T04:42:34.265Z,10.00
2019-05-26T04:43:34.249Z,10.17
2019-05-26T04:44:34.237Z,10.18
2019-05-26T04:45:34.240Z,10.15
2019-05-26T04:46:34.304Z,10.26
2019-05-26T04:47:34.200Z,10.18
2019-05-26T04:48:34.195Z,10.40
2019-05-26T04:49:37.435Z,10.36
2019-05-26T04:50:34.181Z,10.51
2019-05-26T04:51:34.152Z,10.51
2019-05-26T04:52:34.143Z,10.63
2019-05-26T04:53:34.131Z,10.71
2019-05-26T04:54:34.139Z,10.78
2019-05-26T04:55:34.157Z,10.84
2019-05-26T04:56:34.106Z,10.92
2019-05-26T04:57:34.087Z,11.06
2019-05-26T04:58:34.081Z,11.24
2019-05-26T04:59:34.065Z,11.25
2019-05-26T05:00:34.065Z,11.35
2019-05-26T05:01:34.053Z,11.44
2019-05-26T05:02:34.028Z,11.50
2019-05-26T05:03:34.018Z,11.57
2019-05-26T05:04:49.004Z,11.64
2019-05-26T05:05:34.008Z,11.80
2019-05-26T05:06:34.019Z,11.86
2019-05-26T05:07:33.983Z,11.89
2019-05-26T05:08:34.039Z,11.99
2019-05-26T05:09:33.959Z,12.09
2019-05-26T05:10:42.204Z,12.20
2019-05-26T05:11:34.975Z,12.12
2019-05-26T05:12:33.921Z,12.19
2019-05-26T05:13:33.910Z,12.39
2019-05-26T05:14:33.894Z,12.45
2019-05-26T05:15:33.886Z,12.67
2019-05-26T05:16:33.871Z,12.69
2019-05-26T05:17:33.904Z,12.85
2019-05-26T05:18:33.849Z,12.84
2019-05-26T05:19:33.841Z,13.00
2019-05-26T05:20:33.828Z,13.04
2019-05-26T05:21:33.816Z,13.18
2019-05-26T05:22:33.803Z,13.41
2019-05-26T05:23:33.828Z,13.55
2019-05-26T05:24:33.786Z,13.87
2019-05-26T05:25:33.767Z,13.96
2019-05-26T05:26:33.758Z,14.17
2019-05-26T05:27:33.754Z,14.37
2019-05-26T05:28:33.742Z,14.61
2019-05-26T05:29:33.745Z,14.75
2019-05-26T05:30:33.729Z,14.84
2019-05-26T05:31:33.698Z,15.02
2019-05-26T05:32:33.695Z,15.26
2019-05-26T05:33:33.686Z,15.21
2019-05-26T05:34:33.719Z,15.15
2019-05-26T05:35:33.732Z,15.26
2019-05-26T05:36:33.646Z,15.39
2019-05-26T05:37:33.631Z,15.33
2019-05-26T05:38:33.620Z,15.30
2019-05-26T05:39:33.638Z,15.13
2019-05-26T05:40:33.605Z,15.24
2019-05-26T05:41:33.606Z,15.42
2019-05-26T05:42:33.574Z,15.21
2019-05-26T05:43:33.577Z,15.33
2019-05-26T05:44:33.555Z,15.21
2019-05-26T05:45:33.559Z,15.21
2019-05-26T05:46:33.549Z,15.03
2019-05-26T05:47:33.554Z,14.87
2019-05-26T05:48:33.511Z,15.05
2019-05-26T05:49:33.504Z,15.08
2019-05-26T05:50:33.504Z,15.13
2019-05-26T05:51:33.487Z,15.01
2019-05-26T05:52:33.469Z,15.12
2019-05-26T05:53:33.472Z,15.31
2019-05-26T05:54:33.451Z,15.35
2019-05-26T05:55:33.429Z,15.31
2019-05-26T05:56:33.440Z,15.46
2019-05-26T05:57:33.406Z,15.41
2019-05-26T05:58:33.405Z,15.66
2019-05-26T05:59:33.397Z,15.82
2019-05-26T06:00:33.373Z,15.82
2019-05-26T06:01:33.365Z,15.92
2019-05-26T06:02:33.391Z,16.00
2019-05-26T06:03:33.340Z,16.11
2019-05-26T06:04:33.329Z,15.92
2019-05-26T06:05:33.356Z,15.89
2019-05-26T06:06:33.306Z,15.70
2019-05-26T06:07:33.294Z,15.82
2019-05-26T06:08:33.296Z,15.82
2019-05-26T06:09:33.274Z,15.96
2019-05-26T06:10:33.260Z,16.03
2019-05-26T06:11:33.266Z,16.20
2019-05-26T06:12:33.239Z,16.44
2019-05-26T06:13:33.248Z,16.16
2019-05-26T06:14:33.319Z,16.09
2019-05-26T06:15:33.203Z,16.04
2019-05-26T06:16:33.193Z,15.92
2019-05-26T06:17:33.199Z,16.16
2019-05-26T06:18:33.171Z,16.22
2019-05-26T06:19:33.171Z,16.31
2019-05-26T06:20:33.152Z,16.41
2019-05-26T06:21:33.230Z,16.55
2019-05-26T06:22:33.127Z,16.81
2019-05-26T06:23:36.637Z,16.86
2019-05-26T06:24:33.123Z,16.90
2019-05-26T06:25:33.089Z,16.71
2019-05-26T06:26:33.101Z,16.68
2019-05-26T06:27:33.069Z,16.78
2019-05-26T06:28:33.063Z,16.90
2019-05-26T06:29:33.082Z,16.96
2019-05-26T06:30:33.039Z,17.25
2019-05-26T06:31:33.032Z,17.33
2019-05-26T06:32:33.025Z,17.38
2019-05-26T06:33:33.011Z,17.48
2019-05-26T06:34:32.990Z,17.79
2019-05-26T06:35:33.226Z,18.27
2019-05-26T06:36:32.965Z,18.54
2019-05-26T06:37:32.959Z,18.64
2019-05-26T06:38:32.951Z,18.73
2019-05-26T06:39:32.933Z,18.83
2019-05-26T06:40:32.923Z,19.23
2019-05-26T06:41:34.124Z,19.21
2019-05-26T06:42:32.900Z,19.20
2019-05-26T06:43:32.892Z,19.40
2019-05-26T06:44:32.876Z,19.61
2019-05-26T06:45:32.867Z,19.60
2019-05-26T06:46:32.855Z,20.00
2019-05-26T06:47:32.862Z,20.10
2019-05-26T06:48:32.849Z,20.47
2019-05-26T06:49:32.824Z,20.59
2019-05-26T06:50:32.810Z,20.65
2019-05-26T06:51:32.827Z,20.74
2019-05-26T06:52:32.788Z,20.54
2019-05-26T06:53:32.776Z,20.27
2019-05-26T06:54:32.766Z,20.49
2019-05-26T06:55:32.810Z,20.41
2019-05-26T06:56:32.742Z,20.34
2019-05-26T06:57:32.753Z,20.21
2019-05-26T06:58:32.732Z,20.00
2019-05-26T06:59:32.715Z,19.90
2019-05-26T07:00:32.700Z,19.60
2019-05-26T07:01:32.705Z,19.48
2019-05-26T07:02:32.695Z,19.38
2019-05-26T07:03:32.706Z,19.24
2019-05-26T07:04:32.653Z,19.08
2019-05-26T07:05:32.644Z,18.95
2019-05-26T07:06:32.635Z,19.08
2019-05-26T07:07:32.623Z,19.10
2019-05-26T07:08:32.674Z,19.08
2019-05-26T07:09:32.643Z,19.15
2019-05-26T07:10:32.586Z,19.17
2019-05-26T07:11:47.252Z,19.18
2019-05-26T07:12:33.585Z,19.11
2019-05-26T07:13:32.560Z,19.15
2019-05-26T07:14:32.555Z,19.11
2019-05-26T07:15:32.596Z,19.08
2019-05-26T07:16:37.922Z,19.08
2019-05-26T07:17:33.523Z,18.84
2019-05-26T07:18:32.508Z,18.67
2019-05-26T07:19:32.492Z,18.57
2019-05-26T07:20:32.507Z,18.67
2019-05-26T07:21:32.471Z,18.76
2019-05-26T07:22:32.463Z,18.86
2019-05-26T07:23:32.446Z,18.98
2019-05-26T07:24:32.440Z,18.73
2019-05-26T07:25:32.468Z,18.87
2019-05-26T07:26:32.411Z,19.10
2019-05-26T07:27:32.396Z,19.18
2019-05-26T07:28:32.396Z,19.18
2019-05-26T07:29:32.431Z,19.25
2019-05-26T07:30:32.367Z,19.21
2019-05-26T07:31:32.424Z,19.17
2019-05-26T07:32:32.342Z,19.18
2019-05-26T07:33:32.330Z,19.24
2019-05-26T07:34:32.325Z,19.18
2019-05-26T07:35:33.167Z,19.10
2019-05-26T07:36:32.303Z,18.99
2019-05-26T07:37:32.326Z,18.97
2019-05-26T07:38:32.286Z,18.82
2019-05-26T07:39:32.269Z,19.02
2019-05-26T07:40:32.258Z,19.01
2019-05-26T07:41:32.253Z,19.05
2019-05-26T07:42:32.239Z,18.98
2019-05-26T07:43:32.274Z,19.02
2019-05-26T07:44:32.229Z,18.91
2019-05-26T07:45:32.212Z,19.23
2019-05-26T07:46:32.195Z,19.25
2019-05-26T07:47:32.181Z,19.17
2019-05-26T07:48:35.795Z,19.10
2019-05-26T07:49:32.170Z,19.02
2019-05-26T07:50:32.144Z,19.50
2019-05-26T07:51:32.142Z,19.50
2019-05-26T07:52:32.118Z,19.51
2019-05-26T07:53:32.131Z,19.76
2019-05-26T07:54:32.128Z,19.57
2019-05-26T07:55:32.090Z,19.61
2019-05-26T07:56:32.084Z,19.69
2019-05-26T07:57:32.068Z,19.55
2019-05-26T07:58:32.051Z,19.63
2019-05-26T07:59:32.100Z,19.88
2019-05-26T08:00:32.134Z,20.24
2019-05-26T08:01:36.343Z,20.18
2019-05-26T08:02:32.017Z,20.06
2019-05-26T08:03:32.008Z,19.98
2019-05-26T08:04:31.985Z,20.08
2019-05-26T08:05:31.996Z,20.16
2019-05-26T08:06:31.986Z,20.27
2019-05-26T08:07:31.951Z,20.25
2019-05-26T08:08:31.951Z,20.35
2019-05-26T08:09:31.954Z,19.86
2019-05-26T08:10:31.987Z,19.87
2019-05-26T08:11:31.910Z,20.08
2019-05-26T08:12:31.930Z,20.16
2019-05-26T08:13:31.945Z,20.53
2019-05-26T08:14:31.885Z,20.99
2019-05-26T08:15:41.574Z,21.23
2019-05-26T08:16:31.895Z,21.41
2019-05-26T08:17:31.845Z,21.42
2019-05-26T08:18:39.401Z,21.46
2019-05-26T08:19:31.861Z,21.46
2019-05-26T08:20:40.638Z,21.66
2019-05-26T08:21:31.839Z,21.61
2019-05-26T08:22:31.811Z,21.78
2019-05-26T08:23:31.783Z,21.76
2019-05-26T08:24:31.778Z,21.88
2019-05-26T08:25:31.755Z,21.75
2019-05-26T08:26:31.761Z,21.98
2019-05-26T08:27:31.770Z,21.61
2019-05-26T08:28:31.733Z,21.67
2019-05-26T08:29:31.711Z,21.63
2019-05-26T08:30:31.701Z,21.48
2019-05-26T08:31:31.688Z,21.56
2019-05-26T08:32:31.686Z,21.14
2019-05-26T08:33:31.681Z,20.98
2019-05-26T08:34:31.659Z,20.79
2019-05-26T08:35:31.649Z,20.54
2019-05-26T08:36:31.665Z,20.10
2019-05-26T08:37:31.640Z,19.95
2019-05-26T08:38:31.626Z,19.95
2019-05-26T08:39:31.603Z,19.88
2019-05-26T08:40:31.637Z,20.06
2019-05-26T08:41:41.188Z,20.38
2019-05-26T08:42:43.896Z,20.62
2019-05-26T08:43:32.564Z,20.41
2019-05-26T08:44:31.562Z,20.20
2019-05-26T08:45:31.548Z,20.46
2019-05-26T08:46:31.562Z,20.71
2019-05-26T08:47:31.531Z,21.06
2019-05-26T08:48:31.534Z,20.98
2019-05-26T08:49:31.502Z,21.04
2019-05-26T08:50:34.308Z,21.27
2019-05-26T08:51:31.471Z,21.06
2019-05-26T08:52:31.477Z,21.27
2019-05-26T08:53:39.008Z,21.59
2019-05-26T08:54:31.458Z,21.46
2019-05-26T08:55:31.440Z,21.36
2019-05-26T08:56:31.444Z,21.74
2019-05-26T08:57:31.433Z,21.78
2019-05-26T08:58:31.411Z,22.22
2019-05-26T08:59:31.395Z,22.53
2019-05-26T09:00:31.383Z,22.31
2019-05-26T09:01:31.358Z,22.23
2019-05-26T09:02:31.355Z,22.46
2019-05-26T09:03:31.356Z,22.44
2019-05-26T09:04:31.377Z,22.56
2019-05-26T09:05:31.318Z,22.75
2019-05-26T09:06:31.311Z,22.82
2019-05-26T09:07:31.298Z,23.42
2019-05-26T09:08:31.285Z,22.75
2019-05-26T09:09:31.274Z,22.37
2019-05-26T09:10:31.276Z,22.43
2019-05-26T09:11:31.256Z,22.67
2019-05-26T09:12:31.247Z,22.12
2019-05-26T09:13:31.238Z,22.17
2019-05-26T09:14:31.261Z,21.99
2019-05-26T09:15:31.270Z,21.90
2019-05-26T09:16:31.231Z,21.66
2019-05-26T09:17:31.232Z,21.72
2019-05-26T09:18:31.181Z,21.90
2019-05-26T09:19:31.169Z,21.66
2019-05-26T09:20:31.182Z,21.53
2019-05-26T09:21:31.145Z,21.41
2019-05-26T09:22:31.171Z,21.27
2019-05-26T09:23:31.172Z,21.19
2019-05-26T09:24:31.147Z,20.83
2019-05-26T09:25:31.114Z,20.86
2019-05-26T09:26:31.127Z,20.59
2019-05-26T09:27:31.109Z,20.91
2019-05-26T09:28:31.090Z,21.23
2019-05-26T09:29:31.062Z,21.72
2019-05-26T09:30:31.090Z,21.82
2019-05-26T09:31:34.011Z,22.34
2019-05-26T09:32:31.038Z,22.23
2019-05-26T09:33:31.051Z,22.09
2019-05-26T09:34:31.015Z,21.94
2019-05-26T09:35:30.992Z,21.81
2019-05-26T09:36:30.985Z,21.92
2019-05-26T09:37:30.990Z,21.95
2019-05-26T09:38:30.962Z,22.16
2019-05-26T09:39:30.967Z,22.43
2019-05-26T09:40:30.941Z,22.78
2019-05-26T09:41:30.944Z,23.01
2019-05-26T09:42:30.919Z,23.47
2019-05-26T09:43:30.909Z,23.68
2019-05-26T09:44:30.896Z,23.97
2019-05-26T09:45:30.904Z,24.00
2019-05-26T09:46:30.888Z,23.92
2019-05-26T09:47:30.871Z,23.87
2019-05-26T09:48:30.863Z,23.75
2019-05-26T09:49:30.877Z,23.72
2019-05-26T09:50:30.920Z,23.61
2019-05-26T09:51:30.848Z,23.72
2019-05-26T09:52:30.818Z,23.82
2019-05-26T09:53:30.810Z,23.98
2019-05-26T09:54:30.799Z,24.04
2019-05-26T09:55:30.784Z,23.58
2019-05-26T09:56:30.785Z,23.70
2019-05-26T09:57:30.775Z,24.00
2019-05-26T09:58:30.770Z,23.95
2019-05-26T09:59:30.743Z,24.00
2019-05-26T10:00:30.756Z,23.76
2019-05-26T10:01:30.755Z,23.79
2019-05-26T10:02:30.743Z,23.47
2019-05-26T10:03:30.697Z,22.74
2019-05-26T10:04:30.689Z,22.50
2019-05-26T10:05:30.678Z,22.54
2019-05-26T10:06:30.661Z,22.60
2019-05-26T10:07:30.697Z,22.80
2019-05-26T10:08:30.672Z,23.09
2019-05-26T10:09:30.631Z,23.14
2019-05-26T10:10:30.626Z,22.60
2019-05-26T10:11:30.620Z,22.67
2019-05-26T10:12:30.598Z,22.53
2019-05-26T10:13:31.986Z,22.96
2019-05-26T10:14:30.645Z,23.40
2019-05-26T10:15:30.576Z,23.45
2019-05-26T10:16:38.195Z,23.45
2019-05-26T10:17:38.165Z,23.57
2019-05-26T10:18:30.540Z,23.71
2019-05-26T10:19:30.537Z,23.23
2019-05-26T10:20:30.517Z,22.93
2019-05-26T10:21:30.508Z,22.96
2019-05-26T10:22:30.513Z,23.32
2019-05-26T10:23:30.483Z,22.92
2019-05-26T10:24:30.512Z,23.08
2019-05-26T10:25:30.476Z,23.39
2019-05-26T10:26:30.449Z,23.34
2019-05-26T10:27:30.440Z,23.45
2019-05-26T10:28:30.430Z,23.53
2019-05-26T10:29:30.419Z,23.46
2019-05-26T10:30:30.429Z,22.84
2019-05-26T10:31:30.404Z,22.59
2019-05-26T10:32:30.393Z,22.46
2019-05-26T10:33:30.373Z,22.12
2019-05-26T10:34:30.380Z,22.22
2019-05-26T10:35:30.386Z,21.85
2019-05-26T10:36:30.355Z,21.75
2019-05-26T10:37:30.332Z,21.90
2019-05-26T10:38:30.315Z,21.95
2019-05-26T10:39:30.307Z,21.79
2019-05-26T10:40:30.301Z,21.82
2019-05-26T10:41:30.310Z,21.83
2019-05-26T10:42:30.282Z,21.92
2019-05-26T10:43:30.297Z,21.74
2019-05-26T10:44:30.253Z,21.71
2019-05-26T10:45:33.601Z,21.50
2019-05-26T10:46:30.297Z,21.76
2019-05-26T10:47:30.236Z,21.90
2019-05-26T10:48:30.227Z,21.71
2019-05-26T10:49:30.205Z,21.98
2019-05-26T10:50:30.189Z,22.02
2019-05-26T10:51:30.208Z,22.07
2019-05-26T10:52:30.235Z,22.07
2019-05-26T10:53:30.156Z,21.98
2019-05-26T10:54:30.154Z,22.07
2019-05-26T10:55:30.135Z,21.95
2019-05-26T10:56:30.130Z,21.76
2019-05-26T10:57:30.187Z,21.75
2019-05-26T10:58:30.142Z,21.85
2019-05-26T10:59:31.283Z,21.76
2019-05-26T11:00:33.012Z,21.75
2019-05-26T11:01:30.086Z,21.83
2019-05-26T11:02:30.076Z,21.66
2019-05-26T11:03:30.071Z,21.46
2019-05-26T11:04:30.046Z,21.35
2019-05-26T11:05:30.022Z,21.51
2019-05-26T11:06:30.027Z,21.57
2019-05-26T11:07:30.008Z,21.75
2019-05-26T11:08:30.000Z,21.91
2019-05-26T11:09:30.017Z,22.17
2019-05-26T11:10:29.965Z,21.98
2019-05-26T11:11:29.962Z,21.97
2019-05-26T11:12:29.952Z,21.79
2019-05-26T11:13:29.932Z,21.51
2019-05-26T11:14:29.976Z,21.38
2019-05-26T11:15:29.935Z,21.46
2019-05-26T11:16:29.940Z,21.23
2019-05-26T11:17:29.903Z,21.26
2019-05-26T11:18:29.881Z,21.48
2019-05-26T11:19:29.869Z,21.45
2019-05-26T11:20:29.875Z,21.57
2019-05-26T11:21:29.877Z,21.61
2019-05-26T11:22:29.850Z,21.54
2019-05-26T11:23:29.823Z,21.13
2019-05-26T11:24:29.830Z,21.11
2019-05-26T11:25:29.804Z,21.20
2019-05-26T11:26:29.819Z,21.35
2019-05-26T11:27:29.780Z,21.30
2019-05-26T11:28:29.781Z,21.38
2019-05-26T11:29:29.758Z,21.42
2019-05-26T11:30:29.753Z,21.32
2019-05-26T11:31:29.749Z,21.32
2019-05-26T11:32:29.753Z,21.20
2019-05-26T11:33:29.760Z,21.29
2019-05-26T11:34:29.699Z,21.26
2019-05-26T11:35:29.693Z,21.16
2019-05-26T11:36:29.681Z,21.09
2019-05-26T11:37:29.714Z,20.87
2019-05-26T11:38:33.269Z,20.98
2019-05-26T11:39:29.653Z,21.06
2019-05-26T11:40:29.637Z,21.24
2019-05-26T11:41:29.626Z,21.35
2019-05-26T11:42:29.629Z,21.51
2019-05-26T11:43:29.620Z,21.54
2019-05-26T11:44:29.637Z,21.69
2019-05-26T11:45:29.577Z,21.76
2019-05-26T11:46:29.574Z,21.81
2019-05-26T11:47:29.569Z,22.10
2019-05-26T11:48:29.579Z,22.06
2019-05-26T11:49:29.539Z,22.28
2019-05-26T11:50:29.539Z,22.43
2019-05-26T11:51:29.511Z,22.29
2019-05-26T11:52:29.501Z,22.37
2019-05-26T11:53:29.488Z,22.39
2019-05-26T11:54:29.514Z,22.44
2019-05-26T11:55:29.466Z,22.28
2019-05-26T11:56:29.478Z,22.28
2019-05-26T11:57:29.471Z,22.14
2019-05-26T11:58:29.433Z,22.39
2019-05-26T11:59:29.429Z,22.74
2019-05-26T12:00:29.429Z,23.01
2019-05-26T12:01:29.403Z,23.01
2019-05-26T12:02:29.400Z,23.11
2019-05-26T12:03:29.380Z,23.26
2019-05-26T12:04:29.368Z,23.12
2019-05-26T12:05:29.367Z,22.97
2019-05-26T12:06:29.354Z,22.83
2019-05-26T12:07:29.345Z,23.08
2019-05-26T12:08:29.335Z,23.08
2019-05-26T12:09:29.315Z,22.77
2019-05-26T12:10:29.322Z,22.90
2019-05-26T12:11:29.324Z,22.75
2019-05-26T12:12:29.292Z,22.65
2019-05-26T12:13:29.271Z,22.65
2019-05-26T12:14:34.995Z,22.54
2019-05-26T12:15:30.263Z,22.43
2019-05-26T12:16:29.269Z,22.52
2019-05-26T12:17:29.228Z,22.57
2019-05-26T12:18:29.220Z,22.69
2019-05-26T12:19:29.218Z,22.53
2019-05-26T12:20:29.211Z,22.44
2019-05-26T12:21:29.197Z,22.39
2019-05-26T12:22:29.188Z,22.12
2019-05-26T12:23:29.173Z,22.02
2019-05-26T12:24:29.164Z,22.12
2019-05-26T12:25:29.155Z,22.13
2019-05-26T12:26:29.219Z,22.14
2019-05-26T12:27:29.239Z,22.07
2019-05-26T12:28:29.187Z,22.01
2019-05-26T12:29:29.156Z,22.01
2019-05-26T12:30:29.127Z,22.06
2019-05-26T12:31:29.139Z,21.75
2019-05-26T12:32:29.104Z,21.76
2019-05-26T12:33:29.053Z,21.81
2019-05-26T12:34:29.055Z,21.82
2019-05-26T12:35:29.034Z,21.83
2019-05-26T12:36:29.058Z,21.79
2019-05-26T12:37:29.019Z,21.60
2019-05-26T12:38:28.998Z,21.76
2019-05-26T12:39:29.013Z,21.97
2019-05-26T12:40:28.997Z,22.04
2019-05-26T12:41:28.960Z,22.12
2019-05-26T12:42:28.960Z,22.28
2019-05-26T12:43:28.938Z,22.49
2019-05-26T12:44:28.938Z,22.23
2019-05-26T12:45:28.948Z,22.04
2019-05-26T12:46:28.910Z,22.12
2019-05-26T12:47:28.895Z,22.02
2019-05-26T12:48:28.884Z,22.02
2019-05-26T12:49:28.891Z,21.97
2019-05-26T12:50:28.887Z,22.06
2019-05-26T12:51:28.859Z,22.34
2019-05-26T12:52:28.858Z,22.07
2019-05-26T12:53:28.832Z,22.20
2019-05-26T12:54:28.825Z,22.29
2019-05-26T12:55:28.818Z,22.38
2019-05-26T12:56:28.877Z,22.27
2019-05-26T12:57:28.840Z,22.44
2019-05-26T12:58:28.796Z,22.68
2019-05-26T12:59:28.763Z,22.87
2019-05-26T13:00:28.752Z,22.84
2019-05-26T13:01:28.759Z,22.82